createdAt,value
2022-12-23T00:02:15.471Z,100224.28
2022-12-23T00:04:37.419Z,100218.78
2022-12-23T00:06:59.243Z,100221.53
2022-12-23T00:09:21.687Z,100227.38
2022-12-23T00:12:03.546Z,100230.16
2022-12-23T00:14:44.237Z,100231.31
2022-12-23T00:17:17.541Z,100236.81
2022-12-23T00:19:43.696Z,100239.56
2022-12-23T00:22:05.585Z,100242.69
2022-12-23T00:24:27.421Z,100246.69
2022-12-23T00:26:49.197Z,100254.63
2022-12-23T00:29:11.448Z,100259.31
2022-12-23T00:31:33.372Z,100255.75
2022-12-23T00:33:56.515Z,100251.06
2022-12-23T00:36:30.693Z,100262.09
2022-12-23T00:39:11.698Z,100258.50
2022-12-23T00:41:53.360Z,100262.75
2022-12-23T00:44:15.265Z,100265.53
2022-12-23T00:46:37.853Z,100263.94
2022-12-23T00:49:18.008Z,100265.19
2022-12-23T00:51:39.965Z,100271.94
2022-12-23T00:54:02.771Z,100273.91
2022-12-23T00:56:24.697Z,100269.19
2022-12-23T00:58:46.590Z,100270.34
2022-12-23T01:01:27.247Z,100269.97
2022-12-23T01:04:07.693Z,100281.00
2022-12-23T01:06:29.593Z,100284.56
2022-12-23T01:08:51.440Z,100283.31
2022-12-23T01:11:13.407Z,100286.78
2022-12-23T01:13:37.013Z,100295.03
2022-12-23T01:16:13.483Z,100289.44
2022-12-23T01:18:38.958Z,100305.59
2022-12-23T01:21:10.872Z,100288.28
2022-12-23T01:23:34.091Z,100296.53
2022-12-23T01:26:01.481Z,100298.59
2022-12-23T01:28:23.497Z,100293.91
2022-12-23T01:30:45.349Z,100297.78
2022-12-23T01:33:07.160Z,100302.97
2022-12-23T01:35:29.007Z,100306.19
2022-12-23T01:37:50.918Z,100311.34
2022-12-23T01:40:13.007Z,100303.53
2022-12-23T01:42:43.597Z,100309.38
2022-12-23T01:45:19.154Z,100308.25
2022-12-23T01:47:43.867Z,100300.75
2022-12-23T01:50:14.528Z,100303.97
2022-12-23T01:52:47.594Z,100312.25
2022-12-23T01:55:11.647Z,100316.84
2022-12-23T01:57:36.050Z,100313.75
2022-12-23T02:00:17.785Z,100320.41
2022-12-23T02:03:01.809Z,100333.84
2022-12-23T02:05:24.632Z,100335.47
2022-12-23T02:08:05.687Z,100341.66
2022-12-23T02:10:44.266Z,100340.53
2022-12-23T02:13:34.705Z,100347.97
2022-12-23T02:16:18.997Z,100348.34
2022-12-23T02:19:14.439Z,100344.41
2022-12-23T02:22:04.937Z,100349.94
2022-12-23T02:25:29.481Z,100353.84
2022-12-23T02:28:51.515Z,100358.19
2022-12-23T02:31:52.426Z,100362.91
2022-12-23T02:34:30.072Z,100360.50
2022-12-23T02:37:22.899Z,100372.44
2022-12-23T02:39:59.114Z,100374.06
2022-12-23T02:42:31.880Z,100379.13
2022-12-23T02:44:59.698Z,100369.69
2022-12-23T02:47:41.843Z,100380.00
2022-12-23T02:50:15.176Z,100380.84
2022-12-23T02:52:41.429Z,100385.41
2022-12-23T02:55:31.214Z,100401.16
2022-12-23T02:57:56.996Z,100394.03
2022-12-23T03:00:19.639Z,100407.34
2022-12-23T03:02:43.127Z,100416.06
2022-12-23T03:05:06.796Z,100420.00
2022-12-23T03:07:38.956Z,100429.41
2022-12-23T03:10:18.659Z,100420.00
2022-12-23T03:12:58.849Z,100421.59
2022-12-23T03:15:48.032Z,100406.69
2022-12-23T03:18:51.388Z,100416.88
2022-12-23T03:21:28.889Z,100404.25
2022-12-23T03:24:05.448Z,100410.09
2022-12-23T03:26:42.077Z,100401.41
2022-12-23T03:29:26.361Z,100405.75
2022-12-23T03:31:51.841Z,100398.28
2022-12-23T03:34:23.067Z,100404.16
2022-12-23T03:36:55.767Z,100404.59
2022-12-23T03:39:23.493Z,100410.94
2022-12-23T03:41:55.691Z,100404.97
2022-12-23T03:44:26.837Z,100407.34
2022-12-23T03:47:04.168Z,100403.47
2022-12-23T03:49:46.703Z,100408.19
2022-12-23T03:52:21.133Z,100417.56
2022-12-23T03:54:50.159Z,100412.44
2022-12-23T03:57:13.931Z,100413.56
2022-12-23T03:59:42.654Z,100421.50
2022-12-23T04:02:35.462Z,100408.19
2022-12-23T04:05:18.521Z,100408.97
2022-12-23T04:08:03.705Z,100409.78
2022-12-23T04:10:26.976Z,100416.06
2022-12-23T04:12:50.330Z,100419.19
2022-12-23T04:15:13.282Z,100421.59
2022-12-23T04:17:36.105Z,100433.31
2022-12-23T04:19:57.967Z,100436.41
2022-12-23T04:22:19.798Z,100437.91
2022-12-23T04:24:42.503Z,100439.06
2022-12-23T04:27:04.788Z,100439.41
2022-12-23T04:29:26.653Z,100439.78
2022-12-23T04:31:48.487Z,100444.91
2022-12-23T04:34:10.491Z,100444.91
2022-12-23T04:36:32.457Z,100440.91
2022-12-23T04:38:54.341Z,100450.31
2022-12-23T04:41:16.213Z,100455.03
2022-12-23T04:43:38.069Z,100448.38
2022-12-23T04:45:59.902Z,100454.22
2022-12-23T04:48:21.738Z,100458.13
2022-12-23T04:50:43.673Z,100460.41
2022-12-23T04:53:05.455Z,100453.97
2022-12-23T04:55:27.302Z,100456.75
2022-12-23T04:57:49.268Z,100455.59
2022-12-23T05:00:11.859Z,100458.38
2022-12-23T05:02:33.932Z,100452.84
2022-12-23T05:04:55.831Z,100443.44
2022-12-23T05:07:17.885Z,100430.81
2022-12-23T05:09:39.775Z,100440.66
2022-12-23T05:12:01.617Z,100436.78
2022-12-23T05:14:23.495Z,100449.41
2022-12-23T05:16:45.342Z,100446.31
2022-12-23T05:19:07.812Z,100451.81
2022-12-23T05:21:29.704Z,100441.59
2022-12-23T05:23:51.785Z,100445.50
2022-12-23T05:26:13.635Z,100454.91
2022-12-23T05:28:35.900Z,100456.06
2022-12-23T05:31:07.378Z,100458.13
2022-12-23T05:33:30.108Z,100468.00
2022-12-23T05:35:51.964Z,100479.03
2022-12-23T05:38:13.947Z,100486.50
2022-12-23T05:40:35.867Z,100485.69
2022-12-23T05:42:57.922Z,100488.44
2022-12-23T05:45:20.820Z,100495.56
2022-12-23T05:47:42.636Z,100489.72
2022-12-23T05:50:05.305Z,100490.88
2022-12-23T05:52:27.170Z,100491.66
2022-12-23T05:54:49.034Z,100493.25
2022-12-23T05:57:10.945Z,100496.81
2022-12-23T05:59:32.798Z,100499.25
2022-12-23T06:01:54.839Z,100495.34
2022-12-23T06:04:16.774Z,100486.63
2022-12-23T06:06:38.700Z,100480.28
2022-12-23T06:09:00.653Z,100480.28
2022-12-23T06:11:22.759Z,100486.63
2022-12-23T06:13:44.616Z,100480.28
2022-12-23T06:16:06.918Z,100471.22
2022-12-23T06:18:28.727Z,100470.09
2022-12-23T06:20:50.547Z,100469.38
2022-12-23T06:23:12.455Z,100469.84
2022-12-23T06:25:34.334Z,100461.22
2022-12-23T06:27:56.260Z,100466.84
2022-12-23T06:30:18.156Z,100468.00
2022-12-23T06:32:40.873Z,100458.22
2022-12-23T06:35:02.760Z,100461.81
2022-12-23T06:37:24.694Z,100468.22
2022-12-23T06:39:46.713Z,100469.06
2022-12-23T06:42:08.463Z,100466.63
2022-12-23T06:44:30.391Z,100463.88
2022-12-23T06:46:52.202Z,100476.16
2022-12-23T06:49:14.265Z,100477.75
2022-12-23T06:51:36.217Z,100473.06
2022-12-23T06:54:00.054Z,100487.28
2022-12-23T06:56:22.200Z,100488.44
2022-12-23T06:58:44.346Z,100488.44
2022-12-23T07:01:06.722Z,100491.91
2022-12-23T07:03:28.632Z,100499.72
2022-12-23T07:05:52.028Z,100505.00
2022-12-23T07:08:14.019Z,100513.03
2022-12-23T07:10:35.909Z,100520.34
2022-12-23T07:12:57.745Z,100538.06
2022-12-23T07:15:19.612Z,100546.22
2022-12-23T07:17:41.383Z,100545.38
2022-12-23T07:20:03.864Z,100547.69
2022-12-23T07:22:25.921Z,100546.41
2022-12-23T07:24:47.747Z,100546.78
2022-12-23T07:27:09.664Z,100551.47
2022-12-23T07:29:31.578Z,100550.78
2022-12-23T07:31:53.866Z,100548.38
2022-12-23T07:34:15.922Z,100540.09
2022-12-23T07:36:37.931Z,100535.38
2022-12-23T07:38:59.794Z,100532.63
2022-12-23T07:41:21.640Z,100527.94
2022-12-23T07:43:43.563Z,100518.53
2022-12-23T07:46:10.175Z,100519.00
2022-12-23T07:48:32.186Z,100519.78
2022-12-23T07:51:00.514Z,100528.84
2022-12-23T07:53:22.335Z,100527.25
2022-12-23T07:55:44.252Z,100522.53
2022-12-23T07:58:06.160Z,100518.19
2022-12-23T08:00:28.021Z,100516.22
2022-12-23T08:02:50.100Z,100513.47
2022-12-23T08:05:13.717Z,100510.41
2022-12-23T08:07:36.031Z,100514.28
2022-12-23T08:09:57.892Z,100519.00
2022-12-23T08:12:19.778Z,100527.25
2022-12-23T08:14:42.167Z,100522.53
2022-12-23T08:17:04.112Z,100526.47
2022-12-23T08:19:26.039Z,100520.13
2022-12-23T08:21:48.024Z,100515.75
2022-12-23T08:24:09.866Z,100520.94
2022-12-23T08:26:33.075Z,100524.16
2022-12-23T08:28:54.971Z,100502.56
2022-12-23T08:31:20.592Z,100508.53
2022-12-23T08:33:46.203Z,100513.72
2022-12-23T08:36:16.084Z,100495.22
2022-12-23T08:38:41.675Z,100490.50
2022-12-23T08:41:03.784Z,100479.47
2022-12-23T08:43:30.216Z,100481.09
2022-12-23T08:45:55.561Z,100484.66
2022-12-23T08:48:17.748Z,100495.34
2022-12-23T08:50:45.622Z,100492.22
2022-12-23T08:53:08.194Z,100484.66
2022-12-23T08:55:30.032Z,100499.13
2022-12-23T08:57:51.944Z,100496.38
2022-12-23T09:00:14.406Z,100488.44
2022-12-23T09:02:36.388Z,100488.78
2022-12-23T09:04:58.448Z,100484.09
2022-12-23T09:07:20.309Z,100480.19
2022-12-23T09:09:42.178Z,100483.41
2022-12-23T09:12:04.588Z,100471.22
2022-12-23T09:14:26.446Z,100470.09
2022-12-23T09:16:52.500Z,100463.41
2022-12-23T09:19:14.464Z,100460.66
2022-12-23T09:21:36.789Z,100459.84
2022-12-23T09:23:58.732Z,100450.78
2022-12-23T09:26:28.068Z,100465.38
2022-12-23T09:28:50.594Z,100460.19
2022-12-23T09:31:14.145Z,100455.84
2022-12-23T09:33:36.585Z,100449.06
2022-12-23T09:36:03.696Z,100453.88
2022-12-23T09:38:25.582Z,100451.91
2022-12-23T09:40:47.507Z,100454.34
2022-12-23T09:43:41.623Z,100442.63
2022-12-23T09:46:22.938Z,100430.81
2022-12-23T09:49:13.409Z,100428.03
2022-12-23T09:51:35.463Z,100418.19
2022-12-23T09:54:16.863Z,100413.47
2022-12-23T09:56:57.799Z,100413.56
2022-12-23T09:59:22.764Z,100410.81
2022-12-23T10:02:03.836Z,100398.66
2022-12-23T10:04:55.316Z,100392.44
2022-12-23T10:07:31.145Z,100381.41
2022-12-23T10:09:58.191Z,100386.91
2022-12-23T10:12:43.554Z,100383.00
2022-12-23T10:15:48.759Z,100391.72
2022-12-23T10:18:42.233Z,100397.25
2022-12-23T10:21:12.329Z,100400.94
2022-12-23T10:23:39.901Z,100400.03
2022-12-23T10:26:12.545Z,100395.22
2022-12-23T10:28:34.597Z,100378.69
2022-12-23T10:31:38.033Z,100381.75
2022-12-23T10:34:06.941Z,100372.38
2022-12-23T10:37:08.743Z,100363.28
2022-12-23T10:39:54.781Z,100358.91
2022-12-23T10:42:36.314Z,100351.13
2022-12-23T10:45:31.879Z,100351.13
2022-12-23T10:48:26.599Z,100355.94
2022-12-23T10:51:00.416Z,100348.00
2022-12-23T10:53:46.518Z,100348.81
2022-12-23T10:56:09.266Z,100348.69
2022-12-23T10:58:31.436Z,100339.16
2022-12-23T11:01:09.950Z,100328.94
2022-12-23T11:03:48.005Z,100317.13
2022-12-23T11:06:12.759Z,100324.13
2022-12-23T11:08:38.103Z,100313.00
2022-12-23T11:11:03.784Z,100307.84
2022-12-23T11:13:44.027Z,100305.44
2022-12-23T11:16:25.927Z,100297.97
2022-12-23T11:19:13.850Z,100285.00
2022-12-23T11:21:35.705Z,100278.69
2022-12-23T11:24:18.505Z,100281.53
2022-12-23T11:26:41.119Z,100276.50
2022-12-23T11:29:16.557Z,100262.00
2022-12-23T11:31:39.335Z,100256.94
2022-12-23T11:34:05.975Z,100275.53
2022-12-23T11:36:30.729Z,100265.69
2022-12-23T11:39:19.596Z,100266.94
2022-12-23T11:41:50.295Z,100258.31
2022-12-23T11:44:27.521Z,100258.75
2022-12-23T11:46:50.459Z,100240.63
2022-12-23T11:49:31.512Z,100244.19
2022-12-23T11:52:13.406Z,100235.91
2022-12-23T11:54:35.509Z,100227.63
2022-12-23T11:56:59.263Z,100233.16
2022-12-23T11:59:49.263Z,100229.25
2022-12-23T12:02:43.284Z,100214.31
2022-12-23T12:05:22.729Z,100206.03
2022-12-23T12:07:46.677Z,100197.44
2022-12-23T12:10:20.928Z,100195.47
2022-12-23T12:12:43.187Z,100189.16
2022-12-23T12:15:07.103Z,100183.66
2022-12-23T12:17:47.305Z,100182.16
2022-12-23T12:20:30.254Z,100168.72
2022-12-23T12:23:02.332Z,100151.72
2022-12-23T12:25:39.673Z,100147.38
2022-12-23T12:28:07.418Z,100129.22
2022-12-23T12:30:40.885Z,100122.91
2022-12-23T12:33:17.341Z,100119.69
2022-12-23T12:35:45.740Z,100119.25
2022-12-23T12:38:26.883Z,100115.69
2022-12-23T12:40:56.910Z,100097.91
2022-12-23T12:43:27.951Z,100110.91
2022-12-23T12:46:31.370Z,100106.97
2022-12-23T12:49:12.539Z,100108.16
2022-12-23T12:51:54.395Z,100097.91
2022-12-23T12:54:40.542Z,100090.44
2022-12-23T12:57:04.254Z,100078.28
2022-12-23T12:59:40.235Z,100062.19
2022-12-23T13:02:39.060Z,100050.47
2022-12-23T13:05:15.769Z,100051.38
2022-12-23T13:08:15.928Z,100049.41
2022-12-23T13:11:26.429Z,100044.69
2022-12-23T13:14:02.162Z,100030.44
2022-12-23T13:16:45.197Z,100000.94
2022-12-23T13:19:32.115Z,100015.94
2022-12-23T13:22:13.824Z,100001.03
2022-12-23T13:24:57.657Z,99986.88
2022-12-23T13:27:48.483Z,99990.91
2022-12-23T13:30:23.790Z,99990.44
2022-12-23T13:33:06.966Z,99977.81
2022-12-23T13:35:38.220Z,99971.94
2022-12-23T13:38:41.037Z,99965.72
2022-12-23T13:41:40.291Z,99947.50
2022-12-23T13:44:07.874Z,99954.53
2022-12-23T13:47:27.181Z,99951.41
2022-12-23T13:50:10.282Z,99950.53
2022-12-23T13:53:16.493Z,99938.25
2022-12-23T13:56:17.401Z,99937.38
2022-12-23T13:58:41.436Z,99922.72
2022-12-23T14:01:03.337Z,99921.09
2022-12-23T14:03:33.858Z,99923.88
2022-12-23T14:05:55.784Z,99938.03
2022-12-23T14:08:51.485Z,99934.09
2022-12-23T14:11:24.185Z,99919.00
2022-12-23T14:14:01.966Z,99911.81
2022-12-23T14:16:27.065Z,99915.69
2022-12-23T14:19:13.651Z,99919.28
2022-12-23T14:22:25.469Z,99913.78
2022-12-23T14:25:11.512Z,99916.06
2022-12-23T14:28:40.300Z,99935.81
2022-12-23T14:31:05.647Z,99931.44
2022-12-23T14:33:36.650Z,99925.59
2022-12-23T14:36:27.201Z,99918.19
2022-12-23T14:39:13.928Z,99902.47
2022-12-23T14:41:52.390Z,99900.41
2022-12-23T14:44:43.724Z,99901.13
2022-12-23T14:47:32.900Z,99892.81
2022-12-23T14:49:54.926Z,99887.19
2022-12-23T14:52:58.924Z,99883.28
2022-12-23T14:55:41.570Z,99886.75
2022-12-23T14:58:56.303Z,99881.97
2022-12-23T15:01:43.748Z,99871.22
2022-12-23T15:04:30.231Z,99870.75
2022-12-23T15:07:26.365Z,99873.19
2022-12-23T15:10:01.054Z,99877.06
2022-12-23T15:12:40.637Z,99875.56
2022-12-23T15:15:19.913Z,99892.06
2022-12-23T15:17:42.365Z,99892.44
2022-12-23T15:20:10.469Z,99896.00
2022-12-23T15:22:33.044Z,99893.69
2022-12-23T15:24:54.968Z,99893.31
2022-12-23T15:27:29.330Z,99900.88
2022-12-23T15:29:54.613Z,99895.00
2022-12-23T15:32:18.526Z,99883.53
2022-12-23T15:34:41.793Z,99880.38
2022-12-23T15:37:09.814Z,99872.53
2022-12-23T15:39:35.912Z,99889.78
2022-12-23T15:41:58.105Z,99901.16
2022-12-23T15:44:33.424Z,99891.66
2022-12-23T15:46:55.350Z,99889.31
2022-12-23T15:49:21.736Z,99891.38
2022-12-23T15:52:08.049Z,99890.66
2022-12-23T15:55:15.098Z,99899.38
2022-12-23T15:57:50.325Z,99897.88
2022-12-23T16:00:39.945Z,99903.00
2022-12-23T16:03:04.763Z,99889.66
2022-12-23T16:05:37.786Z,99895.63
2022-12-23T16:08:29.917Z,99908.34
2022-12-23T16:11:16.231Z,99908.00
2022-12-23T16:13:41.589Z,99910.75
2022-12-23T16:16:41.088Z,99907.25
2022-12-23T16:19:03.627Z,99909.13
2022-12-23T16:21:38.168Z,99921.75
2022-12-23T16:24:01.822Z,99923.28
2022-12-23T16:26:23.962Z,99919.69
2022-12-23T16:28:51.224Z,99918.56
2022-12-23T16:31:17.801Z,99927.53
2022-12-23T16:33:53.722Z,99931.88
2022-12-23T16:36:26.349Z,99926.03
2022-12-23T16:38:51.426Z,99938.28
2022-12-23T16:41:13.707Z,99948.59
2022-12-23T16:43:35.952Z,99960.84
2022-12-23T16:45:58.863Z,99957.47
2022-12-23T16:48:31.549Z,99948.16
2022-12-23T16:50:54.808Z,99951.41
2022-12-23T16:53:16.876Z,99961.88
2022-12-23T16:55:44.377Z,99966.84
2022-12-23T16:58:10.427Z,99959.19
2022-12-23T17:00:33.135Z,99971.97
2022-12-23T17:02:55.613Z,99971.75
2022-12-23T17:05:21.199Z,99974.19
2022-12-23T17:07:45.637Z,99984.13
2022-12-23T17:10:09.011Z,99986.63
2022-12-23T17:12:31.045Z,99973.63
2022-12-23T17:14:52.940Z,99983.19
2022-12-23T17:17:16.278Z,99988.81
2022-12-23T17:19:38.169Z,99999.13
2022-12-23T17:22:03.183Z,100005.59
2022-12-23T17:24:27.352Z,99999.72
2022-12-23T17:26:50.728Z,99997.03
2022-12-23T17:29:13.234Z,100004.16
2022-12-23T17:31:35.410Z,100006.97
2022-12-23T17:33:57.353Z,100014.63
2022-12-23T17:36:19.647Z,100001.09
2022-12-23T17:38:41.636Z,100007.41
2022-12-23T17:41:04.502Z,100003.06
2022-12-23T17:43:27.015Z,100030.25
2022-12-23T17:45:49.043Z,100033.00
2022-12-23T17:48:18.018Z,100035.38
2022-12-23T17:50:43.843Z,100035.38
2022-12-23T17:53:05.843Z,100039.03
2022-12-23T17:55:27.870Z,100025.66
2022-12-23T17:57:50.504Z,100037.84
2022-12-23T18:00:14.001Z,100041.88
2022-12-23T18:02:36.128Z,100033.94
2022-12-23T18:04:59.946Z,100039.47
2022-12-23T18:07:21.942Z,100043.81
2022-12-23T18:09:43.904Z,100050.16
2022-12-23T18:12:07.059Z,100047.41
2022-12-23T18:14:29.204Z,100055.31
2022-12-23T18:16:51.203Z,100063.16
2022-12-23T18:19:20.366Z,100058.44
2022-12-23T18:21:42.229Z,100059.94
2022-12-23T18:24:04.575Z,100067.09
2022-12-23T18:26:26.909Z,100054.84
2022-12-23T18:28:49.046Z,100047.66
2022-12-23T18:31:29.301Z,100064.97
2022-12-23T18:33:52.197Z,100068.91
2022-12-23T18:36:27.143Z,100069.69
2022-12-23T18:38:49.651Z,100070.47
2022-12-23T18:41:12.937Z,100085.47
2022-12-23T18:43:34.824Z,100090.53
2022-12-23T18:45:57.425Z,100099.56
2022-12-23T18:48:19.420Z,100098.31
2022-12-23T18:50:42.885Z,100110.50
2022-12-23T18:53:07.597Z,100100.19
2022-12-23T18:55:33.169Z,100104.91
2022-12-23T18:57:55.372Z,100098.94
2022-12-23T19:00:24.632Z,100099.69
2022-12-23T19:02:48.821Z,100100.47
2022-12-23T19:05:28.117Z,100116.56
2022-12-23T19:07:51.944Z,100123.16
2022-12-23T19:10:33.294Z,100126.25
2022-12-23T19:12:56.163Z,100113.63
2022-12-23T19:15:19.567Z,100121.84
2022-12-23T19:17:41.717Z,100115.50
2022-12-23T19:20:05.457Z,100118.25
2022-12-23T19:22:27.558Z,100120.16
2022-12-23T19:25:04.535Z,100111.44
2022-12-23T19:27:27.416Z,100122.09
2022-12-23T19:29:49.331Z,100116.56
2022-12-23T19:32:11.335Z,100115.00
2022-12-23T19:34:33.445Z,100123.63
2022-12-23T19:36:55.301Z,100131.56
2022-12-23T19:39:18.451Z,100121.69
2022-12-23T19:41:40.351Z,100129.97
2022-12-23T19:44:03.400Z,100131.91
2022-12-23T19:46:25.455Z,100133.50
2022-12-23T19:48:53.936Z,100132.00
2022-12-23T19:51:16.000Z,100137.16
2022-12-23T19:53:39.572Z,100146.69
2022-12-23T19:56:07.508Z,100142.31
2022-12-23T19:58:34.781Z,100151.03
2022-12-23T20:01:21.741Z,100157.72
2022-12-23T20:03:46.202Z,100158.53
2022-12-23T20:06:13.536Z,100168.38
2022-12-23T20:08:35.672Z,100175.88
2022-12-23T20:11:12.594Z,100170.44
2022-12-23T20:13:35.913Z,100188.50
2022-12-23T20:15:57.931Z,100188.88
2022-12-23T20:18:19.910Z,100195.13
2022-12-23T20:20:44.309Z,100203.81
2022-12-23T20:23:06.331Z,100191.53
2022-12-23T20:25:28.423Z,100200.09
2022-12-23T20:27:50.608Z,100198.03
2022-12-23T20:30:12.956Z,100204.38
2022-12-23T20:32:35.228Z,100197.25
2022-12-23T20:34:57.181Z,100214.94
2022-12-23T20:37:19.205Z,100216.84
2022-12-23T20:39:41.219Z,100234.53
2022-12-23T20:42:03.974Z,100236.03
2022-12-23T20:44:35.566Z,100219.88
2022-12-23T20:46:58.670Z,100239.97
2022-12-23T20:49:20.760Z,100249.75
2022-12-23T20:51:42.698Z,100257.59
2022-12-23T20:54:05.030Z,100246.19
2022-12-23T20:56:29.459Z,100257.22
2022-12-23T20:59:02.360Z,100258.03
2022-12-23T21:01:44.570Z,100272.97
2022-12-23T21:04:15.877Z,100272.97
2022-12-23T21:06:38.356Z,100284.00
2022-12-23T21:09:02.645Z,100281.69
2022-12-23T21:11:30.588Z,100287.56
2022-12-23T21:13:52.642Z,100308.16
2022-12-23T21:16:15.599Z,100293.91
2022-12-23T21:18:45.770Z,100301.72
2022-12-23T21:21:07.956Z,100304.09
2022-12-23T21:23:31.024Z,100307.25
2022-12-23T21:26:10.978Z,100313.88
2022-12-23T21:28:33.384Z,100319.06
2022-12-23T21:30:55.417Z,100322.63
2022-12-23T21:33:17.327Z,100327.34
2022-12-23T21:35:39.190Z,100334.44
2022-12-23T21:38:01.259Z,100334.63
2022-12-23T21:40:23.314Z,100332.13
2022-12-23T21:42:45.464Z,100341.53
2022-12-23T21:45:08.281Z,100334.88
2022-12-23T21:47:30.166Z,100345.47
2022-12-23T21:49:52.075Z,100343.94
2022-12-23T21:52:14.178Z,100357.50
2022-12-23T21:54:36.617Z,100361.88
2022-12-23T21:56:58.674Z,100366.56
2022-12-23T21:59:20.754Z,100361.41
2022-12-23T22:01:43.881Z,100357.59
2022-12-23T22:04:06.276Z,100370.94
2022-12-23T22:06:32.475Z,100361.50
2022-12-23T22:08:56.891Z,100369.78
2022-12-23T22:11:22.899Z,100373.34
2022-12-23T22:13:46.019Z,100367.03
2022-12-23T22:16:19.145Z,100385.53
2022-12-23T22:18:42.298Z,100378.06
2022-12-23T22:21:06.653Z,100387.84
2022-12-23T22:23:28.576Z,100393.34
2022-12-23T22:25:55.542Z,100405.63
2022-12-23T22:28:17.463Z,100410.69
2022-12-23T22:30:39.356Z,100408.41
2022-12-23T22:33:01.164Z,100418.63
2022-12-23T22:35:23.178Z,100428.50
2022-12-23T22:37:45.099Z,100435.97
2022-12-23T22:40:09.234Z,100443.81
2022-12-23T22:42:31.078Z,100433.59
2022-12-23T22:44:52.971Z,100441.75
2022-12-23T22:47:15.207Z,100443.94
2022-12-23T22:49:37.182Z,100443.72
2022-12-23T22:51:59.333Z,100457.41
2022-12-23T22:54:21.240Z,100450.16
2022-12-23T22:56:45.809Z,100451.22
2022-12-23T22:59:07.783Z,100459.50
2022-12-23T23:01:33.350Z,100455.50
2022-12-23T23:03:58.036Z,100461.81
2022-12-23T23:06:19.956Z,100460.19
2022-12-23T23:08:42.521Z,100462.94
2022-12-23T23:11:05.767Z,100457.78
2022-12-23T23:13:33.774Z,100468.81
2022-12-23T23:15:56.200Z,100472.13
2022-12-23T23:18:18.113Z,100474.97
2022-12-23T23:20:40.283Z,100473.06
2022-12-23T23:23:02.294Z,100477.75
2022-12-23T23:25:24.805Z,100482.59
2022-12-23T23:27:46.759Z,100487.72
2022-12-23T23:30:09.734Z,100490.16
2022-12-23T23:32:31.858Z,100490.16
2022-12-23T23:34:53.846Z,100496.47
2022-12-23T23:37:15.822Z,100497.63
2022-12-23T23:39:37.729Z,100502.69
2022-12-23T23:41:59.655Z,100510.50
2022-12-23T23:44:21.804Z,100513.59
2022-12-23T23:46:47.783Z,100515.22
2022-12-23T23:49:09.918Z,100524.63
2022-12-23T23:51:31.847Z,100539.91
2022-12-23T23:53:54.177Z,100527.28
2022-12-23T23:56:22.040Z,100537.50
2022-12-23T23:58:47.046Z,100537.38
